sensor_id;sensor_type;location;lat;lon;timestamp;P1;durP1;ratioP1;P2;durP2;ratioP2
30173;SDS011;16985;50.814;8.530;2023-05-07T00:01:37;3.80;;;2.10;;
30173;SDS011;16985;50.814;8.530;2023-05-07T00:04:03;2.10;;;1.90;;
30173;SDS011;16985;50.814;8.530;2023-05-07T00:06:29;3.10;;;1.88;;
30173;SDS011;16985;50.814;8.530;2023-05-07T00:08:58;7.63;;;2.58;;
30173;SDS011;16985;50.814;8.530;2023-05-07T00:11:25;3.42;;;1.77;;
30173;SDS011;16985;50.814;8.530;2023-05-07T00:13:51;4.70;;;2.22;;
30173;SDS011;16985;50.814;8.530;2023-05-07T00:16:17;2.97;;;1.98;;
30173;SDS011;16985;50.814;8.530;2023-05-07T00:18:43;3.33;;;2.22;;
30173;SDS011;16985;50.814;8.530;2023-05-07T00:21:10;3.50;;;2.22;;
30173;SDS011;16985;50.814;8.530;2023-05-07T00:23:36;3.53;;;2.10;;
30173;SDS011;16985;50.814;8.530;2023-05-07T00:26:03;2.97;;;2.05;;
30173;SDS011;16985;50.814;8.530;2023-05-07T00:28:29;2.38;;;1.95;;
30173;SDS011;16985;50.814;8.530;2023-05-07T00:30:56;3.22;;;1.95;;
30173;SDS011;16985;50.814;8.530;2023-05-07T00:33:22;2.88;;;1.80;;
30173;SDS011;16985;50.814;8.530;2023-05-07T00:35:48;2.70;;;2.10;;
30173;SDS011;16985;50.814;8.530;2023-05-07T00:38:14;1.92;;;1.70;;
30173;SDS011;16985;50.814;8.530;2023-05-07T00:40:40;3.00;;;1.80;;
30173;SDS011;16985;50.814;8.530;2023-05-07T00:43:06;2.47;;;1.83;;
30173;SDS011;16985;50.814;8.530;2023-05-07T00:45:32;5.35;;;2.20;;
30173;SDS011;16985;50.814;8.530;2023-05-07T00:48:00;4.30;;;2.40;;
30173;SDS011;16985;50.814;8.530;2023-05-07T00:52:54;2.47;;;2.00;;
30173;SDS011;16985;50.814;8.530;2023-05-07T00:55:29;5.68;;;2.33;;
30173;SDS011;16985;50.814;8.530;2023-05-07T00:57:55;4.90;;;2.05;;
30173;SDS011;16985;50.814;8.530;2023-05-07T01:00:21;3.63;;;1.60;;
30173;SDS011;16985;50.814;8.530;2023-05-07T01:02:47;2.92;;;2.05;;
30173;SDS011;16985;50.814;8.530;2023-05-07T01:05:14;5.45;;;2.22;;
30173;SDS011;16985;50.814;8.530;2023-05-07T01:07:43;4.90;;;1.95;;
30173;SDS011;16985;50.814;8.530;2023-05-07T01:10:09;5.03;;;2.25;;
30173;SDS011;16985;50.814;8.530;2023-05-07T01:12:37;2.42;;;2.10;;
30173;SDS011;16985;50.814;8.530;2023-05-07T01:15:04;3.20;;;2.03;;
30173;SDS011;16985;50.814;8.530;2023-05-07T01:17:33;3.33;;;2.53;;
30173;SDS011;16985;50.814;8.530;2023-05-07T01:20:01;4.72;;;2.20;;
30173;SDS011;16985;50.814;8.530;2023-05-07T01:22:30;3.03;;;2.17;;
30173;SDS011;16985;50.814;8.530;2023-05-07T01:25:05;3.78;;;2.13;;
30173;SDS011;16985;50.814;8.530;2023-05-07T01:27:34;3.22;;;2.20;;
30173;SDS011;16985;50.814;8.530;2023-05-07T01:30:01;2.63;;;2.28;;
30173;SDS011;16985;50.814;8.530;2023-05-07T01:32:52;5.55;;;2.78;;
30173;SDS011;16985;50.814;8.530;2023-05-07T01:35:40;4.07;;;2.47;;
30173;SDS011;16985;50.814;8.530;2023-05-07T01:38:09;4.60;;;3.00;;
30173;SDS011;16985;50.814;8.530;2023-05-07T01:40:35;2.15;;;1.95;;
30173;SDS011;16985;50.814;8.530;2023-05-07T01:43:11;3.88;;;2.30;;
30173;SDS011;16985;50.814;8.530;2023-05-07T01:45:38;7.38;;;2.25;;
30173;SDS011;16985;50.814;8.530;2023-05-07T01:48:05;2.55;;;2.10;;
30173;SDS011;16985;50.814;8.530;2023-05-07T01:50:32;3.78;;;2.20;;
30173;SDS011;16985;50.814;8.530;2023-05-07T01:53:08;3.95;;;2.35;;
30173;SDS011;16985;50.814;8.530;2023-05-07T01:55:34;2.92;;;2.10;;
30173;SDS011;16985;50.814;8.530;2023-05-07T01:58:02;3.13;;;2.47;;
30173;SDS011;16985;50.814;8.530;2023-05-07T02:00:29;2.23;;;1.90;;
30173;SDS011;16985;50.814;8.530;2023-05-07T02:02:56;4.20;;;2.85;;
30173;SDS011;16985;50.814;8.530;2023-05-07T02:05:36;4.53;;;2.40;;
30173;SDS011;16985;50.814;8.530;2023-05-07T02:08:09;3.13;;;2.38;;
30173;SDS011;16985;50.814;8.530;2023-05-07T02:10:36;4.75;;;2.22;;
30173;SDS011;16985;50.814;8.530;2023-05-07T02:13:04;2.97;;;2.17;;
30173;SDS011;16985;50.814;8.530;2023-05-07T02:15:30;4.03;;;2.53;;
30173;SDS011;16985;50.814;8.530;2023-05-07T02:18:00;2.38;;;2.17;;
30173;SDS011;16985;50.814;8.530;2023-05-07T02:20:32;4.25;;;2.38;;
30173;SDS011;16985;50.814;8.530;2023-05-07T02:22:58;5.75;;;2.40;;
30173;SDS011;16985;50.814;8.530;2023-05-07T02:25:26;3.50;;;2.60;;
30173;SDS011;16985;50.814;8.530;2023-05-07T02:27:52;1.98;;;1.88;;
30173;SDS011;16985;50.814;8.530;2023-05-07T02:30:22;2.47;;;2.28;;
30173;SDS011;16985;50.814;8.530;2023-05-07T02:32:51;2.38;;;1.88;;
30173;SDS011;16985;50.814;8.530;2023-05-07T02:35:17;4.93;;;2.58;;
30173;SDS011;16985;50.814;8.530;2023-05-07T02:37:43;2.20;;;1.98;;
30173;SDS011;16985;50.814;8.530;2023-05-07T02:40:10;3.47;;;2.80;;
30173;SDS011;16985;50.814;8.530;2023-05-07T02:42:37;2.22;;;2.05;;
30173;SDS011;16985;50.814;8.530;2023-05-07T02:45:03;2.80;;;2.50;;
30173;SDS011;16985;50.814;8.530;2023-05-07T02:47:30;3.28;;;2.10;;
30173;SDS011;16985;50.814;8.530;2023-05-07T02:49:57;3.53;;;2.10;;
30173;SDS011;16985;50.814;8.530;2023-05-07T02:52:23;2.40;;;2.13;;
30173;SDS011;16985;50.814;8.530;2023-05-07T02:55:01;3.80;;;2.30;;
30173;SDS011;16985;50.814;8.530;2023-05-07T02:57:27;2.60;;;2.13;;
30173;SDS011;16985;50.814;8.530;2023-05-07T02:59:54;2.28;;;2.08;;
30173;SDS011;16985;50.814;8.530;2023-05-07T03:02:21;2.90;;;2.50;;
30173;SDS011;16985;50.814;8.530;2023-05-07T03:04:47;2.78;;;2.50;;
30173;SDS011;16985;50.814;8.530;2023-05-07T03:07:13;3.22;;;2.50;;
30173;SDS011;16985;50.814;8.530;2023-05-07T03:09:39;2.60;;;2.35;;
30173;SDS011;16985;50.814;8.530;2023-05-07T03:12:05;3.03;;;2.65;;
30173;SDS011;16985;50.814;8.530;2023-05-07T03:14:32;3.15;;;2.72;;
30173;SDS011;16985;50.814;8.530;2023-05-07T03:16:58;2.78;;;2.47;;
30173;SDS011;16985;50.814;8.530;2023-05-07T03:19:24;3.10;;;2.80;;
30173;SDS011;16985;50.814;8.530;2023-05-07T03:21:50;3.42;;;2.90;;
30173;SDS011;16985;50.814;8.530;2023-05-07T03:24:16;3.10;;;2.63;;
30173;SDS011;16985;50.814;8.530;2023-05-07T03:26:42;2.70;;;2.40;;
30173;SDS011;16985;50.814;8.530;2023-05-07T03:29:08;3.95;;;3.20;;
30173;SDS011;16985;50.814;8.530;2023-05-07T03:31:34;2.80;;;2.30;;
30173;SDS011;16985;50.814;8.530;2023-05-07T03:34:01;4.10;;;2.38;;
30173;SDS011;16985;50.814;8.530;2023-05-07T03:36:27;4.80;;;2.45;;
30173;SDS011;16985;50.814;8.530;2023-05-07T03:38:54;3.40;;;2.90;;
30173;SDS011;16985;50.814;8.530;2023-05-07T03:41:23;4.00;;;2.80;;
30173;SDS011;16985;50.814;8.530;2023-05-07T03:43:50;2.33;;;2.13;;
30173;SDS011;16985;50.814;8.530;2023-05-07T03:46:17;3.70;;;2.60;;
30173;SDS011;16985;50.814;8.530;2023-05-07T03:48:43;3.22;;;2.58;;
30173;SDS011;16985;50.814;8.530;2023-05-07T03:51:11;3.13;;;2.85;;
30173;SDS011;16985;50.814;8.530;2023-05-07T03:53:37;3.70;;;2.85;;
30173;SDS011;16985;50.814;8.530;2023-05-07T03:56:19;4.53;;;2.60;;
30173;SDS011;16985;50.814;8.530;2023-05-07T03:58:48;4.75;;;2.63;;
30173;SDS011;16985;50.814;8.530;2023-05-07T04:01:14;6.75;;;2.70;;
30173;SDS011;16985;50.814;8.530;2023-05-07T04:03:41;4.90;;;3.10;;
30173;SDS011;16985;50.814;8.530;2023-05-07T04:06:07;7.60;;;3.00;;
30173;SDS011;16985;50.814;8.530;2023-05-07T04:08:34;3.85;;;3.00;;
30173;SDS011;16985;50.814;8.530;2023-05-07T04:11:02;4.38;;;3.20;;
30173;SDS011;16985;50.814;8.530;2023-05-07T04:13:30;3.80;;;3.22;;
30173;SDS011;16985;50.814;8.530;2023-05-07T04:15:57;3.35;;;2.92;;
30173;SDS011;16985;50.814;8.530;2023-05-07T04:18:24;4.85;;;3.35;;
30173;SDS011;16985;50.814;8.530;2023-05-07T04:20:51;4.65;;;3.67;;
30173;SDS011;16985;50.814;8.530;2023-05-07T04:23:17;6.45;;;4.10;;
30173;SDS011;16985;50.814;8.530;2023-05-07T04:25:44;8.98;;;4.38;;
30173;SDS011;16985;50.814;8.530;2023-05-07T04:28:24;3.63;;;3.17;;
30173;SDS011;16985;50.814;8.530;2023-05-07T04:30:50;5.30;;;3.88;;
30173;SDS011;16985;50.814;8.530;2023-05-07T04:33:17;4.82;;;3.13;;
30173;SDS011;16985;50.814;8.530;2023-05-07T04:35:45;5.28;;;3.90;;
30173;SDS011;16985;50.814;8.530;2023-05-07T04:38:12;6.88;;;3.90;;
30173;SDS011;16985;50.814;8.530;2023-05-07T04:40:39;5.25;;;3.80;;
30173;SDS011;16985;50.814;8.530;2023-05-07T04:43:07;5.80;;;3.90;;
30173;SDS011;16985;50.814;8.530;2023-05-07T04:45:40;4.65;;;3.95;;
30173;SDS011;16985;50.814;8.530;2023-05-07T04:48:08;5.57;;;3.80;;
30173;SDS011;16985;50.814;8.530;2023-05-07T04:50:37;4.47;;;3.72;;
30173;SDS011;16985;50.814;8.530;2023-05-07T04:53:03;4.88;;;3.92;;
30173;SDS011;16985;50.814;8.530;2023-05-07T04:55:30;6.82;;;3.92;;
30173;SDS011;16985;50.814;8.530;2023-05-07T04:57:56;5.82;;;3.75;;
30173;SDS011;16985;50.814;8.530;2023-05-07T05:00:22;6.18;;;3.95;;
30173;SDS011;16985;50.814;8.530;2023-05-07T05:02:51;6.00;;;4.07;;
30173;SDS011;16985;50.814;8.530;2023-05-07T05:05:20;6.53;;;3.92;;
30173;SDS011;16985;50.814;8.530;2023-05-07T05:07:48;7.20;;;4.90;;
30173;SDS011;16985;50.814;8.530;2023-05-07T05:10:17;4.82;;;4.13;;
30173;SDS011;16985;50.814;8.530;2023-05-07T05:12:46;7.50;;;4.80;;
30173;SDS011;16985;50.814;8.530;2023-05-07T05:15:13;8.20;;;4.55;;
30173;SDS011;16985;50.814;8.530;2023-05-07T05:17:41;6.63;;;4.93;;
30173;SDS011;16985;50.814;8.530;2023-05-07T05:20:07;9.43;;;5.72;;
30173;SDS011;16985;50.814;8.530;2023-05-07T05:22:36;9.85;;;6.20;;
30173;SDS011;16985;50.814;8.530;2023-05-07T05:25:01;10.90;;;6.68;;
30173;SDS011;16985;50.814;8.530;2023-05-07T05:27:28;11.05;;;6.50;;
30173;SDS011;16985;50.814;8.530;2023-05-07T05:29:55;9.40;;;6.43;;
30173;SDS011;16985;50.814;8.530;2023-05-07T05:32:21;12.63;;;8.30;;
30173;SDS011;16985;50.814;8.530;2023-05-07T05:34:49;10.93;;;7.43;;
30173;SDS011;16985;50.814;8.530;2023-05-07T05:37:16;12.02;;;8.57;;
30173;SDS011;16985;50.814;8.530;2023-05-07T05:39:43;11.18;;;8.15;;
30173;SDS011;16985;50.814;8.530;2023-05-07T05:42:09;11.15;;;7.82;;
30173;SDS011;16985;50.814;8.530;2023-05-07T05:44:45;11.70;;;8.70;;
30173;SDS011;16985;50.814;8.530;2023-05-07T05:47:11;12.52;;;8.95;;
30173;SDS011;16985;50.814;8.530;2023-05-07T05:49:37;12.65;;;8.73;;
30173;SDS011;16985;50.814;8.530;2023-05-07T05:52:04;12.80;;;9.68;;
30173;SDS011;16985;50.814;8.530;2023-05-07T05:54:31;14.02;;;10.35;;
30173;SDS011;16985;50.814;8.530;2023-05-07T05:56:57;13.93;;;10.80;;
30173;SDS011;16985;50.814;8.530;2023-05-07T05:59:23;19.42;;;10.07;;
30173;SDS011;16985;50.814;8.530;2023-05-07T06:01:51;13.25;;;10.00;;
30173;SDS011;16985;50.814;8.530;2023-05-07T06:04:17;13.18;;;10.02;;
30173;SDS011;16985;50.814;8.530;2023-05-07T06:06:44;14.55;;;10.65;;
30173;SDS011;16985;50.814;8.530;2023-05-07T06:09:10;17.27;;;11.30;;
30173;SDS011;16985;50.814;8.530;2023-05-07T06:11:41;17.27;;;11.85;;
30173;SDS011;16985;50.814;8.530;2023-05-07T06:14:07;15.88;;;11.63;;
30173;SDS011;16985;50.814;8.530;2023-05-07T06:16:34;13.10;;;9.65;;
30173;SDS011;16985;50.814;8.530;2023-05-07T06:19:01;13.33;;;10.87;;
30173;SDS011;16985;50.814;8.530;2023-05-07T06:21:27;16.52;;;11.27;;
30173;SDS011;16985;50.814;8.530;2023-05-07T06:23:54;16.48;;;11.48;;
30173;SDS011;16985;50.814;8.530;2023-05-07T06:26:20;17.05;;;11.93;;
30173;SDS011;16985;50.814;8.530;2023-05-07T06:28:47;15.73;;;11.25;;
30173;SDS011;16985;50.814;8.530;2023-05-07T06:31:14;17.38;;;11.77;;
30173;SDS011;16985;50.814;8.530;2023-05-07T06:33:50;15.27;;;11.00;;
30173;SDS011;16985;50.814;8.530;2023-05-07T06:36:17;19.02;;;12.13;;
30173;SDS011;16985;50.814;8.530;2023-05-07T06:38:44;17.15;;;11.73;;
30173;SDS011;16985;50.814;8.530;2023-05-07T06:41:10;17.08;;;12.68;;
30173;SDS011;16985;50.814;8.530;2023-05-07T06:43:37;16.67;;;12.77;;
30173;SDS011;16985;50.814;8.530;2023-05-07T06:46:33;18.35;;;12.57;;
30173;SDS011;16985;50.814;8.530;2023-05-07T06:48:59;16.25;;;11.98;;
30173;SDS011;16985;50.814;8.530;2023-05-07T06:51:26;15.27;;;11.18;;
30173;SDS011;16985;50.814;8.530;2023-05-07T06:53:52;18.02;;;12.35;;
30173;SDS011;16985;50.814;8.530;2023-05-07T06:56:18;16.35;;;11.93;;
30173;SDS011;16985;50.814;8.530;2023-05-07T06:58:45;15.02;;;11.75;;
30173;SDS011;16985;50.814;8.530;2023-05-07T07:01:11;19.77;;;13.52;;
30173;SDS011;16985;50.814;8.530;2023-05-07T07:03:37;19.08;;;14.38;;
30173;SDS011;16985;50.814;8.530;2023-05-07T07:06:15;20.23;;;15.17;;
30173;SDS011;16985;50.814;8.530;2023-05-07T07:08:41;20.42;;;14.35;;
30173;SDS011;16985;50.814;8.530;2023-05-07T07:11:09;33.45;;;15.55;;
30173;SDS011;16985;50.814;8.530;2023-05-07T07:13:36;20.00;;;15.13;;
30173;SDS011;16985;50.814;8.530;2023-05-07T07:16:11;22.45;;;15.27;;
30173;SDS011;16985;50.814;8.530;2023-05-07T07:18:37;19.23;;;14.15;;
30173;SDS011;16985;50.814;8.530;2023-05-07T07:21:05;20.03;;;13.93;;
30173;SDS011;16985;50.814;8.530;2023-05-07T07:23:31;18.42;;;14.25;;
30173;SDS011;16985;50.814;8.530;2023-05-07T07:25:58;26.95;;;14.93;;
30173;SDS011;16985;50.814;8.530;2023-05-07T07:30:52;18.92;;;13.90;;
30173;SDS011;16985;50.814;8.530;2023-05-07T07:33:18;23.33;;;17.13;;
30173;SDS011;16985;50.814;8.530;2023-05-07T07:35:44;23.95;;;14.75;;
30173;SDS011;16985;50.814;8.530;2023-05-07T07:38:10;25.35;;;16.67;;
30173;SDS011;16985;50.814;8.530;2023-05-07T07:40:37;24.80;;;15.95;;
30173;SDS011;16985;50.814;8.530;2023-05-07T07:43:06;21.77;;;15.27;;
30173;SDS011;16985;50.814;8.530;2023-05-07T07:45:32;19.20;;;15.65;;
30173;SDS011;16985;50.814;8.530;2023-05-07T07:47:59;22.23;;;16.05;;
30173;SDS011;16985;50.814;8.530;2023-05-07T07:50:27;22.23;;;15.25;;
30173;SDS011;16985;50.814;8.530;2023-05-07T07:52:53;21.10;;;14.32;;
30173;SDS011;16985;50.814;8.530;2023-05-07T07:55:19;20.10;;;14.55;;
30173;SDS011;16985;50.814;8.530;2023-05-07T07:57:49;17.85;;;14.18;;
30173;SDS011;16985;50.814;8.530;2023-05-07T08:00:16;20.65;;;14.98;;
30173;SDS011;16985;50.814;8.530;2023-05-07T08:02:42;20.88;;;14.93;;
30173;SDS011;16985;50.814;8.530;2023-05-07T08:05:11;24.30;;;15.10;;
30173;SDS011;16985;50.814;8.530;2023-05-07T08:07:38;19.52;;;14.73;;
30173;SDS011;16985;50.814;8.530;2023-05-07T08:10:08;25.38;;;15.90;;
30173;SDS011;16985;50.814;8.530;2023-05-07T08:12:34;23.15;;;16.67;;
30173;SDS011;16985;50.814;8.530;2023-05-07T08:15:00;20.60;;;15.35;;
30173;SDS011;16985;50.814;8.530;2023-05-07T08:17:35;21.65;;;15.02;;
30173;SDS011;16985;50.814;8.530;2023-05-07T08:20:01;20.42;;;14.35;;
30173;SDS011;16985;50.814;8.530;2023-05-07T08:22:28;23.52;;;16.35;;
30173;SDS011;16985;50.814;8.530;2023-05-07T08:24:54;19.23;;;13.35;;
30173;SDS011;16985;50.814;8.530;2023-05-07T08:27:20;20.20;;;14.45;;
30173;SDS011;16985;50.814;8.530;2023-05-07T08:29:46;20.88;;;14.73;;
30173;SDS011;16985;50.814;8.530;2023-05-07T08:32:15;21.00;;;15.57;;
30173;SDS011;16985;50.814;8.530;2023-05-07T08:34:41;19.58;;;14.50;;
30173;SDS011;16985;50.814;8.530;2023-05-07T08:37:07;20.58;;;15.70;;
30173;SDS011;16985;50.814;8.530;2023-05-07T08:39:34;21.20;;;14.43;;
30173;SDS011;16985;50.814;8.530;2023-05-07T08:42:00;19.55;;;15.15;;
30173;SDS011;16985;50.814;8.530;2023-05-07T08:44:32;22.83;;;14.40;;
30173;SDS011;16985;50.814;8.530;2023-05-07T08:47:02;21.17;;;14.25;;
30173;SDS011;16985;50.814;8.530;2023-05-07T08:49:32;22.58;;;14.63;;
30173;SDS011;16985;50.814;8.530;2023-05-07T08:52:00;20.13;;;14.43;;
30173;SDS011;16985;50.814;8.530;2023-05-07T08:54:27;24.30;;;15.68;;
30173;SDS011;16985;50.814;8.530;2023-05-07T08:56:55;24.63;;;15.27;;
30173;SDS011;16985;50.814;8.530;2023-05-07T08:59:22;23.45;;;14.27;;
30173;SDS011;16985;50.814;8.530;2023-05-07T09:01:48;18.25;;;13.93;;
30173;SDS011;16985;50.814;8.530;2023-05-07T09:04:14;20.98;;;14.45;;
30173;SDS011;16985;50.814;8.530;2023-05-07T09:06:41;19.17;;;14.18;;
30173;SDS011;16985;50.814;8.530;2023-05-07T09:09:10;21.23;;;13.85;;
30173;SDS011;16985;50.814;8.530;2023-05-07T09:11:41;20.33;;;13.90;;
30173;SDS011;16985;50.814;8.530;2023-05-07T09:14:08;17.10;;;12.02;;
30173;SDS011;16985;50.814;8.530;2023-05-07T09:16:38;17.70;;;13.85;;
30173;SDS011;16985;50.814;8.530;2023-05-07T09:19:04;21.70;;;14.27;;
30173;SDS011;16985;50.814;8.530;2023-05-07T09:21:44;17.95;;;11.95;;
30173;SDS011;16985;50.814;8.530;2023-05-07T09:24:11;20.75;;;12.25;;
30173;SDS011;16985;50.814;8.530;2023-05-07T09:26:42;16.27;;;11.45;;
30173;SDS011;16985;50.814;8.530;2023-05-07T09:29:09;17.25;;;11.88;;
30173;SDS011;16985;50.814;8.530;2023-05-07T09:31:36;17.20;;;12.05;;
30173;SDS011;16985;50.814;8.530;2023-05-07T09:34:04;25.40;;;13.30;;
30173;SDS011;16985;50.814;8.530;2023-05-07T09:36:33;20.00;;;13.75;;
30173;SDS011;16985;50.814;8.530;2023-05-07T09:38:59;25.52;;;11.88;;
30173;SDS011;16985;50.814;8.530;2023-05-07T09:41:26;17.85;;;11.30;;
30173;SDS011;16985;50.814;8.530;2023-05-07T09:44:02;17.35;;;12.27;;
30173;SDS011;16985;50.814;8.530;2023-05-07T09:46:36;15.60;;;10.75;;
30173;SDS011;16985;50.814;8.530;2023-05-07T09:49:16;13.93;;;10.48;;
30173;SDS011;16985;50.814;8.530;2023-05-07T09:51:49;11.32;;;9.35;;
30173;SDS011;16985;50.814;8.530;2023-05-07T09:54:19;13.35;;;10.00;;
30173;SDS011;16985;50.814;8.530;2023-05-07T09:56:48;14.52;;;10.63;;
30173;SDS011;16985;50.814;8.530;2023-05-07T09:59:16;14.48;;;10.27;;
30173;SDS011;16985;50.814;8.530;2023-05-07T10:01:43;13.63;;;9.70;;
30173;SDS011;16985;50.814;8.530;2023-05-07T10:04:11;15.30;;;10.40;;
30173;SDS011;16985;50.814;8.530;2023-05-07T10:06:38;15.98;;;10.10;;
30173;SDS011;16985;50.814;8.530;2023-05-07T10:09:06;12.65;;;9.13;;
30173;SDS011;16985;50.814;8.530;2023-05-07T10:11:32;12.35;;;9.73;;
30173;SDS011;16985;50.814;8.530;2023-05-07T10:13:59;14.73;;;8.88;;
30173;SDS011;16985;50.814;8.530;2023-05-07T10:16:30;13.98;;;9.38;;
30173;SDS011;16985;50.814;8.530;2023-05-07T10:19:02;13.20;;;9.40;;
30173;SDS011;16985;50.814;8.530;2023-05-07T10:21:31;14.07;;;9.43;;
30173;SDS011;16985;50.814;8.530;2023-05-07T10:24:10;10.32;;;8.45;;
30173;SDS011;16985;50.814;8.530;2023-05-07T10:26:43;11.73;;;8.38;;
30173;SDS011;16985;50.814;8.530;2023-05-07T10:29:15;9.88;;;8.05;;
30173;SDS011;16985;50.814;8.530;2023-05-07T10:31:56;11.90;;;7.75;;
30173;SDS011;16985;50.814;8.530;2023-05-07T10:34:32;10.57;;;7.43;;
30173;SDS011;16985;50.814;8.530;2023-05-07T10:37:03;10.38;;;7.20;;
30173;SDS011;16985;50.814;8.530;2023-05-07T10:39:30;11.38;;;7.97;;
30173;SDS011;16985;50.814;8.530;2023-05-07T10:42:12;9.52;;;7.07;;
30173;SDS011;16985;50.814;8.530;2023-05-07T10:44:45;9.32;;;6.88;;
30173;SDS011;16985;50.814;8.530;2023-05-07T10:47:17;8.30;;;7.13;;
30173;SDS011;16985;50.814;8.530;2023-05-07T10:52:22;11.13;;;7.60;;
30173;SDS011;16985;50.814;8.530;2023-05-07T10:57:47;10.80;;;6.70;;
30173;SDS011;16985;50.814;8.530;2023-05-07T11:05:48;11.10;;;6.80;;
30173;SDS011;16985;50.814;8.530;2023-05-07T11:08:52;8.68;;;6.68;;
30173;SDS011;16985;50.814;8.530;2023-05-07T11:11:48;9.30;;;6.72;;
30173;SDS011;16985;50.814;8.530;2023-05-07T11:17:10;9.70;;;7.43;;
30173;SDS011;16985;50.814;8.530;2023-05-07T11:19:50;13.88;;;7.57;;
30173;SDS011;16985;50.814;8.530;2023-05-07T11:22:39;10.40;;;7.43;;
30173;SDS011;16985;50.814;8.530;2023-05-07T11:25:28;8.00;;;6.15;;
30173;SDS011;16985;50.814;8.530;2023-05-07T11:28:10;11.80;;;7.13;;
30173;SDS011;16985;50.814;8.530;2023-05-07T11:30:45;8.15;;;6.40;;
30173;SDS011;16985;50.814;8.530;2023-05-07T11:33:16;8.82;;;6.30;;
30173;SDS011;16985;50.814;8.530;2023-05-07T11:35:43;12.48;;;7.15;;
30173;SDS011;16985;50.814;8.530;2023-05-07T11:38:12;9.88;;;6.18;;
30173;SDS011;16985;50.814;8.530;2023-05-07T11:40:51;9.95;;;6.72;;
30173;SDS011;16985;50.814;8.530;2023-05-07T11:43:29;6.82;;;5.53;;
30173;SDS011;16985;50.814;8.530;2023-05-07T11:46:10;9.00;;;5.70;;
30173;SDS011;16985;50.814;8.530;2023-05-07T11:48:37;12.85;;;6.95;;
30173;SDS011;16985;50.814;8.530;2023-05-07T11:51:04;7.15;;;5.55;;
30173;SDS011;16985;50.814;8.530;2023-05-07T11:53:35;10.00;;;5.88;;
30173;SDS011;16985;50.814;8.530;2023-05-07T11:56:07;9.18;;;5.90;;
30173;SDS011;16985;50.814;8.530;2023-05-07T11:58:37;9.07;;;6.13;;
30173;SDS011;16985;50.814;8.530;2023-05-07T12:01:04;9.88;;;5.80;;
30173;SDS011;16985;50.814;8.530;2023-05-07T12:03:34;9.40;;;5.82;;
30173;SDS011;16985;50.814;8.530;2023-05-07T12:06:02;7.90;;;6.05;;
30173;SDS011;16985;50.814;8.530;2023-05-07T12:08:31;8.95;;;5.93;;
30173;SDS011;16985;50.814;8.530;2023-05-07T12:10:57;10.23;;;5.88;;
30173;SDS011;16985;50.814;8.530;2023-05-07T12:13:24;11.48;;;6.38;;
30173;SDS011;16985;50.814;8.530;2023-05-07T12:15:57;10.27;;;6.85;;
30173;SDS011;16985;50.814;8.530;2023-05-07T12:18:23;7.45;;;5.47;;
30173;SDS011;16985;50.814;8.530;2023-05-07T12:20:50;10.50;;;5.88;;
30173;SDS011;16985;50.814;8.530;2023-05-07T12:23:16;11.20;;;7.10;;
30173;SDS011;16985;50.814;8.530;2023-05-07T12:25:43;8.43;;;6.65;;
30173;SDS011;16985;50.814;8.530;2023-05-07T12:28:16;10.43;;;6.97;;
30173;SDS011;16985;50.814;8.530;2023-05-07T12:30:44;9.80;;;6.35;;
30173;SDS011;16985;50.814;8.530;2023-05-07T12:33:19;8.68;;;5.88;;
30173;SDS011;16985;50.814;8.530;2023-05-07T12:35:50;9.77;;;5.88;;
30173;SDS011;16985;50.814;8.530;2023-05-07T12:38:18;11.63;;;6.07;;
30173;SDS011;16985;50.814;8.530;2023-05-07T12:40:46;8.98;;;6.10;;
30173;SDS011;16985;50.814;8.530;2023-05-07T12:45:56;9.05;;;5.43;;
30173;SDS011;16985;50.814;8.530;2023-05-07T12:48:26;10.25;;;5.63;;
30173;SDS011;16985;50.814;8.530;2023-05-07T12:50:53;7.03;;;5.15;;
30173;SDS011;16985;50.814;8.530;2023-05-07T12:53:20;7.00;;;5.18;;
30173;SDS011;16985;50.814;8.530;2023-05-07T12:58:36;6.10;;;4.47;;
30173;SDS011;16985;50.814;8.530;2023-05-07T13:01:06;7.82;;;5.35;;
30173;SDS011;16985;50.814;8.530;2023-05-07T13:03:35;6.75;;;5.18;;
30173;SDS011;16985;50.814;8.530;2023-05-07T13:06:03;8.93;;;5.45;;
30173;SDS011;16985;50.814;8.530;2023-05-07T13:08:38;6.22;;;4.82;;
30173;SDS011;16985;50.814;8.530;2023-05-07T13:11:08;7.32;;;4.85;;
30173;SDS011;16985;50.814;8.530;2023-05-07T13:13:36;7.13;;;4.75;;
30173;SDS011;16985;50.814;8.530;2023-05-07T13:16:05;7.25;;;4.70;;
30173;SDS011;16985;50.814;8.530;2023-05-07T13:18:40;6.20;;;3.92;;
30173;SDS011;16985;50.814;8.530;2023-05-07T13:21:08;7.05;;;4.55;;
30173;SDS011;16985;50.814;8.530;2023-05-07T13:23:35;9.25;;;5.18;;
30173;SDS011;16985;50.814;8.530;2023-05-07T13:26:03;6.03;;;4.60;;
30173;SDS011;16985;50.814;8.530;2023-05-07T13:28:29;6.57;;;4.60;;
30173;SDS011;16985;50.814;8.530;2023-05-07T13:30:55;7.38;;;4.75;;
30173;SDS011;16985;50.814;8.530;2023-05-07T13:33:21;7.18;;;4.20;;
30173;SDS011;16985;50.814;8.530;2023-05-07T13:35:47;8.63;;;4.82;;
30173;SDS011;16985;50.814;8.530;2023-05-07T13:38:14;5.75;;;4.10;;
30173;SDS011;16985;50.814;8.530;2023-05-07T13:40:40;9.55;;;5.15;;
30173;SDS011;16985;50.814;8.530;2023-05-07T13:43:06;8.60;;;4.43;;
30173;SDS011;16985;50.814;8.530;2023-05-07T13:45:33;5.80;;;4.07;;
30173;SDS011;16985;50.814;8.530;2023-05-07T13:47:59;5.20;;;4.00;;
30173;SDS011;16985;50.814;8.530;2023-05-07T13:50:25;5.43;;;4.10;;
30173;SDS011;16985;50.814;8.530;2023-05-07T13:52:59;6.38;;;4.43;;
30173;SDS011;16985;50.814;8.530;2023-05-07T13:55:28;5.57;;;4.18;;
30173;SDS011;16985;50.814;8.530;2023-05-07T13:57:59;5.97;;;4.30;;
30173;SDS011;16985;50.814;8.530;2023-05-07T14:00:29;5.72;;;4.32;;
30173;SDS011;16985;50.814;8.530;2023-05-07T14:02:55;7.22;;;4.15;;
30173;SDS011;16985;50.814;8.530;2023-05-07T14:05:22;6.22;;;3.72;;
30173;SDS011;16985;50.814;8.530;2023-05-07T14:07:50;5.25;;;4.47;;
30173;SDS011;16985;50.814;8.530;2023-05-07T14:10:17;5.85;;;4.43;;
30173;SDS011;16985;50.814;8.530;2023-05-07T14:12:44;6.40;;;4.35;;
30173;SDS011;16985;50.814;8.530;2023-05-07T14:15:12;7.18;;;4.55;;
30173;SDS011;16985;50.814;8.530;2023-05-07T14:17:39;5.32;;;3.95;;
30173;SDS011;16985;50.814;8.530;2023-05-07T14:20:05;7.32;;;4.00;;
30173;SDS011;16985;50.814;8.530;2023-05-07T14:22:32;6.63;;;4.13;;
30173;SDS011;16985;50.814;8.530;2023-05-07T14:24:58;6.43;;;4.22;;
30173;SDS011;16985;50.814;8.530;2023-05-07T14:27:24;4.88;;;3.53;;
30173;SDS011;16985;50.814;8.530;2023-05-07T14:29:50;4.32;;;3.78;;
30173;SDS011;16985;50.814;8.530;2023-05-07T14:32:25;9.05;;;4.30;;
30173;SDS011;16985;50.814;8.530;2023-05-07T14:34:51;5.72;;;3.92;;
30173;SDS011;16985;50.814;8.530;2023-05-07T14:37:18;5.50;;;4.07;;
30173;SDS011;16985;50.814;8.530;2023-05-07T14:39:45;4.95;;;3.78;;
30173;SDS011;16985;50.814;8.530;2023-05-07T14:42:11;11.65;;;4.70;;
30173;SDS011;16985;50.814;8.530;2023-05-07T14:44:37;5.30;;;4.00;;
30173;SDS011;16985;50.814;8.530;2023-05-07T14:49:31;8.80;;;4.15;;
30173;SDS011;16985;50.814;8.530;2023-05-07T14:51:59;5.50;;;3.95;;
30173;SDS011;16985;50.814;8.530;2023-05-07T14:54:27;5.88;;;4.45;;
30173;SDS011;16985;50.814;8.530;2023-05-07T14:56:58;6.95;;;3.58;;
30173;SDS011;16985;50.814;8.530;2023-05-07T14:59:24;6.82;;;4.10;;
30173;SDS011;16985;50.814;8.530;2023-05-07T15:01:50;7.75;;;4.03;;
30173;SDS011;16985;50.814;8.530;2023-05-07T15:04:16;4.88;;;3.50;;
30173;SDS011;16985;50.814;8.530;2023-05-07T15:06:42;9.23;;;4.30;;
30173;SDS011;16985;50.814;8.530;2023-05-07T15:09:25;6.25;;;4.10;;
30173;SDS011;16985;50.814;8.530;2023-05-07T15:11:51;6.80;;;3.70;;
30173;SDS011;16985;50.814;8.530;2023-05-07T15:14:17;7.03;;;3.60;;